createdAt,value
2023-05-25T00:01:00.601Z,91.35
2023-05-25T00:03:31.853Z,91.91
2023-05-25T00:06:01.851Z,91.34
2023-05-25T00:08:30.147Z,90.99
2023-05-25T00:10:57.586Z,89.91
2023-05-25T00:13:25.232Z,89.06
2023-05-25T00:15:53.035Z,89.22
2023-05-25T00:18:20.454Z,88.93
2023-05-25T00:20:47.986Z,89.29
2023-05-25T00:23:15.713Z,88.88
2023-05-25T00:25:43.307Z,88.68
2023-05-25T00:28:12.222Z,88.54
2023-05-25T00:30:40.151Z,89.22
2023-05-25T00:33:07.689Z,88.99
2023-05-25T00:35:35.085Z,89.00
2023-05-25T00:38:02.874Z,89.19
2023-05-25T00:40:30.301Z,89.07
2023-05-25T00:42:59.561Z,89.83
2023-05-25T00:45:27.291Z,89.72
2023-05-25T00:47:54.747Z,89.35
2023-05-25T00:50:42.011Z,89.53
2023-05-25T00:53:11.760Z,91.00
2023-05-25T00:56:11.944Z,91.45
2023-05-25T00:58:43.937Z,90.87
2023-05-25T01:01:13.747Z,89.33
2023-05-25T01:03:45.922Z,88.84
2023-05-25T01:06:17.773Z,89.13
2023-05-25T01:09:00.895Z,90.04
2023-05-25T01:11:33.492Z,90.35
2023-05-25T01:14:02.027Z,89.79
2023-05-25T01:16:30.278Z,91.70
2023-05-25T01:18:57.982Z,92.55
2023-05-25T01:21:27.292Z,91.65
2023-05-25T01:24:22.556Z,92.24
2023-05-25T01:26:58.281Z,92.68
2023-05-25T01:29:28.418Z,91.67
2023-05-25T01:31:58.669Z,90.53
2023-05-25T01:34:27.110Z,90.22
2023-05-25T01:36:54.637Z,90.73
2023-05-25T01:39:24.084Z,92.96
2023-05-25T01:41:51.356Z,91.88
2023-05-25T01:44:19.322Z,92.12
2023-05-25T01:46:53.933Z,92.03
2023-05-25T01:49:30.526Z,92.51
2023-05-25T01:52:13.122Z,93.22
2023-05-25T01:55:02.740Z,93.05
2023-05-25T01:57:36.391Z,93.84
2023-05-25T02:00:05.094Z,93.70
2023-05-25T02:02:45.846Z,91.48
2023-05-25T02:05:14.129Z,89.76
2023-05-25T02:07:41.659Z,91.48
2023-05-25T02:10:09.480Z,93.02
2023-05-25T02:12:37.347Z,92.90
2023-05-25T02:15:05.562Z,93.38
2023-05-25T02:17:33.052Z,94.23
2023-05-25T02:20:01.051Z,93.10
2023-05-25T02:22:29.178Z,92.27
2023-05-25T02:24:56.512Z,91.88
2023-05-25T02:27:24.221Z,91.77
2023-05-25T02:29:53.316Z,91.45
2023-05-25T02:32:21.539Z,91.48
2023-05-25T02:34:49.349Z,90.84
2023-05-25T02:37:17.815Z,89.04
2023-05-25T02:39:45.164Z,88.54
2023-05-25T02:42:13.089Z,88.45
2023-05-25T02:44:40.638Z,90.48
2023-05-25T02:47:08.464Z,90.55
2023-05-25T02:49:36.957Z,90.80
2023-05-25T02:52:05.271Z,91.83
2023-05-25T02:54:32.684Z,92.84
2023-05-25T02:57:00.403Z,92.21
2023-05-25T02:59:27.837Z,92.92
2023-05-25T03:01:55.151Z,92.35
2023-05-25T03:04:22.818Z,91.05
2023-05-25T03:06:50.138Z,91.24
2023-05-25T03:09:18.214Z,90.98
2023-05-25T03:11:46.154Z,91.92
2023-05-25T03:14:13.774Z,91.73
2023-05-25T03:16:41.873Z,93.08
2023-05-25T03:19:10.855Z,92.74
2023-05-25T03:21:38.746Z,91.79
2023-05-25T03:24:07.069Z,91.92
2023-05-25T03:26:34.957Z,91.92
2023-05-25T03:29:03.098Z,92.93
2023-05-25T03:31:30.628Z,92.29
2023-05-25T03:33:58.430Z,92.76
2023-05-25T03:36:28.590Z,93.33
2023-05-25T03:38:55.996Z,93.10
2023-05-25T03:41:23.990Z,93.92
2023-05-25T03:43:52.433Z,93.51
2023-05-25T03:46:20.351Z,92.58
2023-05-25T03:48:48.207Z,92.73
2023-05-25T03:51:16.608Z,92.44
2023-05-25T03:53:45.620Z,93.54
2023-05-25T03:56:13.312Z,93.19
2023-05-25T03:58:40.930Z,95.07
2023-05-25T04:01:09.875Z,94.93
2023-05-25T04:03:37.864Z,95.52
2023-05-25T04:06:05.421Z,94.57
2023-05-25T04:08:34.188Z,94.72
2023-05-25T04:11:02.302Z,95.02
2023-05-25T04:13:29.673Z,97.66
2023-05-25T04:15:58.204Z,97.81
2023-05-25T04:18:26.927Z,96.29
2023-05-25T04:20:55.674Z,95.85
2023-05-25T04:23:23.757Z,95.68
2023-05-25T04:25:52.304Z,96.55
2023-05-25T04:28:23.192Z,96.20
2023-05-25T04:30:51.439Z,95.33
2023-05-25T04:33:39.007Z,94.95
2023-05-25T04:36:30.078Z,92.07
2023-05-25T04:39:08.594Z,91.17
2023-05-25T04:41:38.087Z,93.04
2023-05-25T04:44:10.442Z,93.18
2023-05-25T04:46:45.276Z,93.36
2023-05-25T04:49:13.930Z,93.84
2023-05-25T04:51:41.561Z,94.33
2023-05-25T04:54:13.165Z,94.84
2023-05-25T04:56:47.359Z,95.06
2023-05-25T04:59:15.217Z,94.66
2023-05-25T05:01:44.947Z,94.35
2023-05-25T05:04:13.123Z,93.59
2023-05-25T05:06:41.382Z,92.80
2023-05-25T05:09:49.149Z,91.45
2023-05-25T05:12:12.174Z,90.58
2023-05-25T05:14:43.390Z,90.73
2023-05-25T05:17:11.256Z,89.48
2023-05-25T05:19:38.925Z,89.44
2023-05-25T05:22:10.039Z,88.60
2023-05-25T05:24:39.569Z,88.34
2023-05-25T05:27:15.763Z,91.65
2023-05-25T05:30:12.460Z,94.03
2023-05-25T05:33:03.867Z,94.46
2023-05-25T05:35:32.159Z,94.27
2023-05-25T05:38:03.802Z,93.78
2023-05-25T05:40:33.581Z,92.04
2023-05-25T05:43:02.658Z,92.54
2023-05-25T05:46:10.159Z,90.16
2023-05-25T05:48:54.608Z,90.20
2023-05-25T05:51:27.704Z,90.48
2023-05-25T05:53:56.487Z,88.95
2023-05-25T05:56:25.153Z,88.17
2023-05-25T05:58:54.780Z,86.82
2023-05-25T06:01:26.500Z,85.80
2023-05-25T06:03:59.576Z,85.33
2023-05-25T06:06:29.172Z,83.09
2023-05-25T06:09:03.869Z,82.50
2023-05-25T06:11:40.376Z,83.55
2023-05-25T06:14:09.002Z,81.35
2023-05-25T06:16:38.783Z,80.41
2023-05-25T06:19:06.366Z,78.11
2023-05-25T06:21:43.179Z,77.38
2023-05-25T06:24:13.757Z,78.38
2023-05-25T06:26:43.107Z,77.91
2023-05-25T06:29:10.659Z,78.76
2023-05-25T06:31:38.467Z,75.04
2023-05-25T06:34:06.649Z,74.55
2023-05-25T06:36:34.067Z,74.71
2023-05-25T06:39:01.760Z,74.80
2023-05-25T06:41:30.064Z,75.02
2023-05-25T06:43:57.555Z,73.25
2023-05-25T06:46:25.221Z,71.52
2023-05-25T06:48:53.713Z,71.89
2023-05-25T06:51:21.739Z,69.85
2023-05-25T06:53:49.330Z,74.09
2023-05-25T06:56:17.025Z,73.94
2023-05-25T06:58:49.562Z,73.48
2023-05-25T07:01:18.120Z,71.16
2023-05-25T07:03:45.913Z,72.23
2023-05-25T07:06:17.338Z,74.80
2023-05-25T07:08:49.377Z,76.91
2023-05-25T07:11:26.198Z,76.77
2023-05-25T07:13:56.895Z,79.32
2023-05-25T07:16:25.793Z,76.84
2023-05-25T07:19:15.612Z,74.60
2023-05-25T07:21:49.176Z,71.98
2023-05-25T07:24:23.583Z,75.11
2023-05-25T07:26:53.619Z,75.67
2023-05-25T07:29:27.099Z,72.86
2023-05-25T07:32:05.150Z,69.35
2023-05-25T07:34:38.873Z,67.75
2023-05-25T07:37:14.699Z,66.49
2023-05-25T07:39:44.197Z,64.81
2023-05-25T07:42:13.664Z,67.62
2023-05-25T07:44:43.007Z,67.19
2023-05-25T07:47:15.771Z,66.61
2023-05-25T07:49:43.464Z,64.94
2023-05-25T07:52:21.825Z,65.14
2023-05-25T07:54:55.345Z,62.85
2023-05-25T07:57:24.527Z,62.47
2023-05-25T08:00:02.916Z,63.73
2023-05-25T08:02:42.708Z,64.16
2023-05-25T08:05:11.021Z,62.53
2023-05-25T08:07:42.941Z,64.93
2023-05-25T08:10:11.964Z,66.61
2023-05-25T08:12:48.852Z,67.72
2023-05-25T08:15:22.756Z,70.37
2023-05-25T08:18:04.909Z,69.24
2023-05-25T08:20:43.208Z,70.17
2023-05-25T08:23:10.913Z,70.84
2023-05-25T08:25:38.601Z,71.80
2023-05-25T08:28:54.177Z,72.89
2023-05-25T08:31:15.069Z,74.51
2023-05-25T08:33:45.750Z,75.45
2023-05-25T08:36:16.528Z,75.91
2023-05-25T08:38:44.517Z,78.28
2023-05-25T08:41:13.653Z,79.27
2023-05-25T08:43:42.377Z,78.75
2023-05-25T08:46:10.627Z,80.64
2023-05-25T08:48:42.680Z,78.36
2023-05-25T08:51:17.705Z,78.69
2023-05-25T08:53:46.159Z,80.62
2023-05-25T08:56:20.734Z,80.53
2023-05-25T08:58:59.647Z,79.06
2023-05-25T09:01:32.084Z,79.16
2023-05-25T09:04:09.265Z,79.98
2023-05-25T09:06:40.704Z,78.45
2023-05-25T09:09:09.611Z,78.82
2023-05-25T09:11:41.629Z,77.23
2023-05-25T09:14:11.775Z,78.84
2023-05-25T09:16:40.744Z,79.14
2023-05-25T09:19:08.515Z,79.31
2023-05-25T09:21:36.369Z,81.24
2023-05-25T09:24:04.606Z,81.50
2023-05-25T09:26:33.056Z,80.62
2023-05-25T09:29:02.275Z,81.46
2023-05-25T09:31:31.790Z,81.54
2023-05-25T09:34:00.495Z,82.05
2023-05-25T09:36:28.565Z,84.91
2023-05-25T09:38:59.243Z,83.43
2023-05-25T09:41:29.405Z,84.62
2023-05-25T09:44:09.598Z,85.99
2023-05-25T09:46:40.399Z,85.03
2023-05-25T09:49:09.649Z,88.05
2023-05-25T09:51:37.227Z,84.05
2023-05-25T09:54:09.042Z,82.84
2023-05-25T09:56:36.895Z,82.71
2023-05-25T09:59:04.266Z,80.33
2023-05-25T10:01:33.715Z,79.87
2023-05-25T10:06:52.676Z,77.12
2023-05-25T10:09:21.208Z,75.17
2023-05-25T10:11:53.017Z,73.68
2023-05-25T10:14:29.512Z,71.94
2023-05-25T10:17:04.377Z,72.06
2023-05-25T10:19:43.327Z,73.08
2023-05-25T10:22:22.271Z,69.42
2023-05-25T10:24:58.822Z,66.99
2023-05-25T10:27:34.350Z,67.56
2023-05-25T10:30:03.121Z,64.28
2023-05-25T10:32:33.096Z,62.75
2023-05-25T10:35:02.165Z,63.43
2023-05-25T10:37:31.193Z,64.12
2023-05-25T10:40:01.628Z,64.12
2023-05-25T10:42:30.436Z,61.13
2023-05-25T10:47:26.714Z,57.17
2023-05-25T10:49:55.985Z,55.35
2023-05-25T10:52:31.717Z,54.64
2023-05-25T10:55:05.410Z,54.17
2023-05-25T10:57:33.187Z,53.58
2023-05-25T11:00:09.067Z,53.05
2023-05-25T11:02:57.913Z,56.87
2023-05-25T11:05:28.915Z,55.79
2023-05-25T11:08:11.631Z,57.71
2023-05-25T11:11:05.277Z,55.66
2023-05-25T11:13:37.876Z,54.72
2023-05-25T11:16:24.946Z,55.45
2023-05-25T11:18:55.989Z,55.72
2023-05-25T11:21:30.548Z,55.71
2023-05-25T11:24:02.836Z,52.94
2023-05-25T11:26:34.100Z,54.08
2023-05-25T11:29:12.517Z,53.52
2023-05-25T11:31:43.375Z,52.99
2023-05-25T11:34:12.167Z,52.27
2023-05-25T11:36:39.929Z,53.28
2023-05-25T11:39:16.964Z,53.38
2023-05-25T11:42:11.528Z,52.59
2023-05-25T11:44:39.282Z,55.23
2023-05-25T11:47:14.736Z,53.20
2023-05-25T11:49:44.338Z,53.70
2023-05-25T11:52:23.160Z,54.01
2023-05-25T11:54:50.677Z,53.82
2023-05-25T11:57:20.649Z,51.83
2023-05-25T11:59:50.409Z,52.18
2023-05-25T12:02:18.574Z,53.11
2023-05-25T12:04:55.388Z,52.14
2023-05-25T12:07:23.855Z,54.17
2023-05-25T12:09:53.755Z,56.39
2023-05-25T12:12:21.433Z,55.55
2023-05-25T12:14:52.309Z,56.63
2023-05-25T12:17:22.192Z,57.03
2023-05-25T12:19:50.117Z,56.61
2023-05-25T12:22:17.783Z,55.29
2023-05-25T12:24:45.632Z,53.67
2023-05-25T12:27:21.145Z,54.03
2023-05-25T12:29:49.528Z,53.04
2023-05-25T12:32:17.075Z,52.12
2023-05-25T12:34:44.551Z,52.96
2023-05-25T12:37:22.587Z,51.69
2023-05-25T12:39:50.878Z,53.23
2023-05-25T12:42:18.724Z,56.25
2023-05-25T12:44:46.908Z,56.26
2023-05-25T12:47:16.852Z,56.15
2023-05-25T12:49:47.296Z,54.75
2023-05-25T12:52:37.278Z,55.39
2023-05-25T12:55:30.372Z,57.27
2023-05-25T12:58:02.448Z,57.27
2023-05-25T13:00:37.246Z,56.67
2023-05-25T13:03:08.382Z,55.21
2023-05-25T13:05:38.360Z,55.79
2023-05-25T13:08:07.251Z,51.68
2023-05-25T13:10:35.777Z,50.09
2023-05-25T13:13:04.747Z,49.79
2023-05-25T13:15:32.065Z,49.31
2023-05-25T13:17:59.634Z,48.58
2023-05-25T13:20:30.807Z,47.54
2023-05-25T13:22:58.657Z,47.26
2023-05-25T13:25:28.073Z,43.60
2023-05-25T13:27:58.246Z,44.43
2023-05-25T13:30:26.591Z,44.80
2023-05-25T13:32:54.302Z,42.91
2023-05-25T13:35:40.573Z,44.13
2023-05-25T13:38:07.995Z,42.85
2023-05-25T13:40:35.654Z,42.93
2023-05-25T13:43:03.368Z,41.69
2023-05-25T13:45:30.876Z,40.50
2023-05-25T13:47:59.147Z,38.78
2023-05-25T13:50:26.788Z,38.40
2023-05-25T13:52:54.459Z,40.34
2023-05-25T13:55:23.175Z,39.28
2023-05-25T13:57:52.046Z,40.23
2023-05-25T14:00:20.438Z,40.57
2023-05-25T14:02:48.311Z,40.55
2023-05-25T14:05:15.854Z,38.25
2023-05-25T14:07:44.762Z,39.00
2023-05-25T14:10:12.464Z,37.23
2023-05-25T14:12:39.963Z,37.25
2023-05-25T14:15:08.277Z,38.13
2023-05-25T14:17:36.002Z,37.86
2023-05-25T14:20:04.509Z,37.87
2023-05-25T14:22:32.765Z,34.79
2023-05-25T14:25:00.480Z,35.58
2023-05-25T14:27:27.878Z,37.41
2023-05-25T14:29:55.218Z,36.12
2023-05-25T14:32:22.893Z,40.16
2023-05-25T14:34:50.295Z,43.74
2023-05-25T14:37:18.180Z,44.82
2023-05-25T14:39:45.900Z,45.11
2023-05-25T14:42:13.314Z,47.16
2023-05-25T14:44:40.862Z,47.09
2023-05-25T14:47:08.914Z,47.42
2023-05-25T14:49:36.324Z,48.85
2023-05-25T14:52:04.067Z,50.30
2023-05-25T14:54:31.744Z,51.22
2023-05-25T14:56:59.026Z,50.30
2023-05-25T14:59:26.445Z,51.00
2023-05-25T15:01:54.326Z,50.99
2023-05-25T15:04:22.001Z,51.02
2023-05-25T15:06:49.461Z,51.01
2023-05-25T15:09:19.507Z,51.43
2023-05-25T15:11:46.906Z,50.52
2023-05-25T15:14:14.380Z,50.90
2023-05-25T15:16:42.768Z,52.41
2023-05-25T15:19:12.697Z,53.32
2023-05-25T15:21:41.658Z,53.58
2023-05-25T15:24:09.206Z,54.15
2023-05-25T15:26:36.576Z,54.64
2023-05-25T15:29:04.304Z,53.97
2023-05-25T15:31:31.813Z,54.75
2023-05-25T15:34:00.872Z,55.64
2023-05-25T15:36:28.900Z,56.03
2023-05-25T15:38:56.532Z,56.15
2023-05-25T15:41:24.036Z,55.47
2023-05-25T15:43:54.798Z,54.50
2023-05-25T15:46:22.341Z,55.34
2023-05-25T15:48:49.880Z,56.04
2023-05-25T15:51:17.573Z,55.58
2023-05-25T15:53:44.951Z,56.25
2023-05-25T15:56:12.377Z,56.83
2023-05-25T15:58:40.064Z,56.46
2023-05-25T16:01:07.544Z,55.90
2023-05-25T16:03:35.320Z,54.52
2023-05-25T16:06:02.944Z,55.13
2023-05-25T16:08:30.315Z,54.51
2023-05-25T16:10:58.081Z,54.59
2023-05-25T16:13:25.441Z,55.37
2023-05-25T16:15:52.935Z,55.68
2023-05-25T16:18:20.853Z,55.94
2023-05-25T16:20:49.317Z,56.28
2023-05-25T16:23:17.073Z,56.66
2023-05-25T16:25:44.861Z,56.73
2023-05-25T16:28:12.326Z,57.27
2023-05-25T16:30:39.665Z,58.23
2023-05-25T16:33:07.486Z,59.45
2023-05-25T16:35:34.894Z,59.45
2023-05-25T16:38:02.455Z,60.05
2023-05-25T16:40:31.692Z,60.63
2023-05-25T16:42:59.249Z,62.10
2023-05-25T16:45:26.735Z,62.21
2023-05-25T16:47:54.581Z,62.09
2023-05-25T16:50:21.997Z,62.84
2023-05-25T16:52:49.692Z,63.54
2023-05-25T16:55:17.899Z,63.82
2023-05-25T16:57:45.387Z,65.02
2023-05-25T17:00:13.448Z,65.22
2023-05-25T17:02:41.257Z,65.30
2023-05-25T17:05:09.567Z,64.94
2023-05-25T17:07:38.001Z,66.18
2023-05-25T17:10:15.748Z,67.50
2023-05-25T17:12:43.850Z,69.06
2023-05-25T17:15:13.932Z,69.21
2023-05-25T17:17:41.489Z,69.07
2023-05-25T17:20:09.379Z,69.25
2023-05-25T17:22:38.017Z,69.57
2023-05-25T17:25:11.610Z,69.85
2023-05-25T17:27:39.275Z,68.38
2023-05-25T17:30:07.269Z,69.40
2023-05-25T17:32:34.666Z,70.62
2023-05-25T17:35:02.483Z,70.46
2023-05-25T17:37:30.095Z,71.20
2023-05-25T17:39:57.637Z,72.12
2023-05-25T17:42:25.471Z,71.95
2023-05-25T17:44:53.433Z,72.27
2023-05-25T17:47:21.085Z,72.36
2023-05-25T17:49:49.319Z,73.48
2023-05-25T17:52:16.650Z,73.68
2023-05-25T17:54:51.306Z,74.55
2023-05-25T17:57:19.003Z,75.10
2023-05-25T17:59:46.461Z,74.02
2023-05-25T18:02:13.952Z,74.98
2023-05-25T18:04:41.857Z,74.16
2023-05-25T18:07:09.281Z,73.97
2023-05-25T18:09:36.753Z,74.17
2023-05-25T18:12:04.590Z,74.98
2023-05-25T18:14:35.465Z,75.27
2023-05-25T18:17:03.002Z,74.27
2023-05-25T18:19:31.081Z,76.63
2023-05-25T18:21:58.509Z,77.04
2023-05-25T18:24:25.985Z,76.84
2023-05-25T18:26:53.944Z,76.47
2023-05-25T18:29:21.345Z,75.85
2023-05-25T18:31:49.037Z,77.03
2023-05-25T18:34:17.050Z,78.13
2023-05-25T18:36:44.510Z,79.92
2023-05-25T18:39:12.377Z,80.85
2023-05-25T18:41:40.305Z,80.90
2023-05-25T18:44:08.302Z,80.63
2023-05-25T18:46:38.320Z,80.64
2023-05-25T18:49:06.194Z,80.46
2023-05-25T18:51:34.159Z,81.16
2023-05-25T18:54:01.595Z,82.92
2023-05-25T18:56:29.411Z,83.02
2023-05-25T18:58:57.407Z,83.73
2023-05-25T19:01:25.798Z,85.46
2023-05-25T19:03:55.403Z,83.78
2023-05-25T19:06:24.262Z,85.20
2023-05-25T19:08:51.670Z,88.93
2023-05-25T19:11:20.294Z,90.31
2023-05-25T19:13:47.741Z,89.87
2023-05-25T19:18:43.131Z,89.14
2023-05-25T19:21:10.551Z,91.14
2023-05-25T19:23:38.054Z,91.07
2023-05-25T19:26:05.917Z,93.42
2023-05-25T19:28:33.377Z,96.02
2023-05-25T19:31:01.239Z,92.23
2023-05-25T19:33:29.041Z,94.38
2023-05-25T19:35:56.430Z,95.78
2023-05-25T19:38:26.564Z,97.42
2023-05-25T19:40:56.759Z,98.36
2023-05-25T19:43:24.250Z,97.67
2023-05-25T19:45:51.653Z,98.61
2023-05-25T19:48:20.491Z,98.13
2023-05-25T19:50:47.955Z,100.00
2023-05-25T19:53:15.343Z,100.00
2023-05-25T19:55:43.240Z,100.00
2023-05-25T19:58:11.312Z,98.61
2023-05-25T20:00:38.668Z,100.00
2023-05-25T20:03:06.650Z,100.00
2023-05-25T20:05:34.232Z,100.00
2023-05-25T20:08:01.627Z,100.00
2023-05-25T20:10:29.777Z,100.00
2023-05-25T20:12:57.161Z,100.00
2023-05-25T20:15:24.540Z,100.00
2023-05-25T20:17:52.391Z,100.00
2023-05-25T20:20:19.918Z,100.00
2023-05-25T20:22:47.414Z,100.00
2023-05-25T20:25:15.170Z,100.00
2023-05-25T20:27:42.662Z,100.00
2023-05-25T20:30:10.913Z,100.00
2023-05-25T20:32:38.803Z,100.00
2023-05-25T20:35:07.180Z,100.00
2023-05-25T20:37:34.527Z,100.00
2023-05-25T20:40:02.483Z,100.00
2023-05-25T20:42:29.897Z,100.00
2023-05-25T20:44:57.361Z,100.00
2023-05-25T20:47:25.138Z,100.00
2023-05-25T20:49:52.584Z,100.00
2023-05-25T20:52:21.315Z,100.00
2023-05-25T20:54:48.960Z,100.00
2023-05-25T20:57:16.483Z,100.00
2023-05-25T20:59:43.966Z,100.00
2023-05-25T21:02:11.775Z,100.00
2023-05-25T21:04:39.112Z,100.00
2023-05-25T21:07:06.629Z,100.00
2023-05-25T21:09:34.275Z,100.00
2023-05-25T21:12:03.576Z,100.00
2023-05-25T21:14:31.080Z,100.00
2023-05-25T21:16:58.710Z,100.00
2023-05-25T21:19:26.080Z,100.00
2023-05-25T21:21:53.738Z,100.00
2023-05-25T21:24:21.611Z,100.00
2023-05-25T21:26:48.874Z,100.00
2023-05-25T21:29:16.146Z,100.00
2023-05-25T21:31:43.976Z,100.00
2023-05-25T21:34:11.490Z,100.00
2023-05-25T21:36:38.935Z,100.00
2023-05-25T21:39:06.674Z,100.00
2023-05-25T21:41:34.132Z,100.00
2023-05-25T21:44:01.615Z,100.00
2023-05-25T21:46:29.465Z,100.00
2023-05-25T21:48:57.206Z,100.00
2023-05-25T21:51:24.670Z,100.00
2023-05-25T21:53:52.255Z,100.00
2023-05-25T21:56:19.619Z,100.00
2023-05-25T21:58:47.094Z,100.00
2023-05-25T22:01:14.817Z,100.00
2023-05-25T22:03:42.845Z,100.00
2023-05-25T22:06:10.506Z,100.00
2023-05-25T22:08:37.830Z,100.00
2023-05-25T22:11:05.571Z,100.00
2023-05-25T22:13:33.201Z,100.00
2023-05-25T22:16:00.760Z,100.00
2023-05-25T22:18:28.430Z,100.00
2023-05-25T22:20:55.844Z,100.00
2023-05-25T22:23:23.275Z,100.00
2023-05-25T22:25:50.879Z,100.00
2023-05-25T22:28:18.270Z,100.00
2023-05-25T22:30:45.761Z,100.00
2023-05-25T22:33:13.475Z,100.00
2023-05-25T22:35:40.866Z,100.00
2023-05-25T22:38:08.267Z,100.00
2023-05-25T22:40:35.950Z,100.00
2023-05-25T22:43:03.280Z,100.00
2023-05-25T22:45:30.704Z,100.00
2023-05-25T22:47:58.463Z,100.00
2023-05-25T22:50:25.877Z,100.00
2023-05-25T22:52:53.224Z,100.00
2023-05-25T22:55:21.748Z,100.00
2023-05-25T22:57:49.082Z,100.00
2023-05-25T23:00:16.546Z,100.00
2023-05-25T23:02:44.364Z,100.00
2023-05-25T23:05:11.727Z,100.00
2023-05-25T23:07:39.176Z,100.00
2023-05-25T23:10:08.383Z,100.00
2023-05-25T23:12:35.799Z,100.00
2023-05-25T23:15:04.265Z,100.00
2023-05-25T23:17:32.860Z,100.00
2023-05-25T23:20:00.366Z,100.00
2023-05-25T23:22:28.182Z,100.00
2023-05-25T23:24:56.059Z,100.00
2023-05-25T23:27:23.414Z,100.00
2023-05-25T23:29:50.789Z,100.00
2023-05-25T23:32:18.398Z,100.00
2023-05-25T23:34:45.800Z,100.00
2023-05-25T23:37:13.151Z,100.00
2023-05-25T23:39:40.776Z,100.00
2023-05-25T23:42:08.345Z,100.00
2023-05-25T23:44:35.739Z,100.00
2023-05-25T23:47:03.616Z,100.00
2023-05-25T23:49:31.412Z,100.00
2023-05-25T23:51:58.738Z,100.00
2023-05-25T23:54:26.379Z,100.00
2023-05-25T23:56:53.919Z,100.00
2023-05-25T23:59:21.272Z,100.00
